createdAt,value
2018-04-16T00:02:02.070Z,95251.22
2018-04-16T00:04:30.413Z,95242.23
2018-04-16T00:06:58.749Z,95239.55
2018-04-16T00:09:27.293Z,95251.54
2018-04-16T00:11:55.687Z,95256.02
2018-04-16T00:14:24.022Z,95248.39
2018-04-16T00:16:52.361Z,95253.45
2018-04-16T00:19:20.695Z,95256.28
2018-04-16T00:21:49.044Z,95262.73
2018-04-16T00:24:17.464Z,95263.00
2018-04-16T00:26:45.802Z,95263.66
2018-04-16T00:29:14.133Z,95256.52
2018-04-16T00:31:48.022Z,95261.45
2018-04-16T00:34:21.880Z,95258.59
2018-04-16T00:36:55.841Z,95259.62
2018-04-16T00:39:30.177Z,95265.42
2018-04-16T00:42:04.002Z,95263.11
2018-04-16T00:44:38.049Z,95265.94
2018-04-16T00:47:11.993Z,95277.38
2018-04-16T00:49:46.092Z,95285.90
2018-04-16T00:52:20.005Z,95284.80
2018-04-16T00:54:53.877Z,95290.73
2018-04-16T00:57:27.690Z,95292.45
2018-04-16T01:00:01.917Z,95290.97
2018-04-16T01:02:35.825Z,95300.30
2018-04-16T01:05:09.894Z,95296.45
2018-04-16T01:07:44.362Z,95301.60
2018-04-16T01:10:18.269Z,95304.97
2018-04-16T01:12:52.187Z,95302.84
2018-04-16T01:15:26.086Z,95296.45
2018-04-16T01:18:00.087Z,95305.51
2018-04-16T01:20:34.003Z,95298.48
2018-04-16T01:23:08.107Z,95293.58
2018-04-16T01:25:42.164Z,95296.76
2018-04-16T01:28:15.952Z,95296.39
2018-04-16T01:30:49.928Z,95290.13
2018-04-16T01:36:23.060Z,95289.20
2018-04-16T01:38:57.052Z,95291.03
2018-04-16T01:41:34.294Z,95296.72
2018-04-16T01:44:08.326Z,95300.47
2018-04-16T01:46:42.239Z,95296.02
2018-04-16T01:49:18.327Z,95297.53
2018-04-16T01:51:52.232Z,95303.38
2018-04-16T01:54:26.273Z,95301.66
2018-04-16T01:57:00.369Z,95301.04
2018-04-16T01:59:37.865Z,95296.77
2018-04-16T02:02:11.902Z,95309.12
2018-04-16T02:04:45.920Z,95305.64
2018-04-16T02:07:19.841Z,95314.94
2018-04-16T02:09:55.881Z,95312.55
2018-04-16T02:12:29.967Z,95313.06
2018-04-16T02:15:03.923Z,95313.75
2018-04-16T02:17:37.862Z,95312.33
2018-04-16T02:20:11.758Z,95316.56
2018-04-16T02:22:45.688Z,95316.17
2018-04-16T02:25:19.434Z,95315.69
2018-04-16T02:27:53.315Z,95310.63
2018-04-16T02:30:27.316Z,95316.86
2018-04-16T02:33:01.158Z,95317.36
2018-04-16T02:35:35.158Z,95312.55
2018-04-16T02:38:09.069Z,95315.55
2018-04-16T02:40:43.149Z,95315.44
2018-04-16T02:43:17.152Z,95316.62
2018-04-16T02:45:51.231Z,95314.12
2018-04-16T02:51:38.376Z,95328.19
2018-04-16T02:54:12.308Z,95326.83
2018-04-16T02:56:46.321Z,95331.45
2018-04-16T02:59:21.133Z,95331.98
2018-04-16T03:01:54.995Z,95329.15
2018-04-16T03:04:28.747Z,95331.69
2018-04-16T03:07:02.795Z,95334.84
2018-04-16T03:09:36.826Z,95330.19
2018-04-16T03:12:10.842Z,95323.61
2018-04-16T03:14:44.760Z,95316.02
2018-04-16T03:17:18.838Z,95313.58
2018-04-16T03:19:52.842Z,95313.47
2018-04-16T03:22:26.849Z,95319.23
2018-04-16T03:25:00.713Z,95315.05
2018-04-16T03:27:34.640Z,95309.17
2018-04-16T03:30:08.565Z,95311.47
2018-04-16T03:35:43.765Z,95318.55
2018-04-16T03:38:17.585Z,95314.66
2018-04-16T03:40:51.610Z,95320.77
2018-04-16T03:43:25.625Z,95324.78
2018-04-16T03:45:59.641Z,95326.79
2018-04-16T03:48:33.606Z,95334.45
2018-04-16T03:51:07.673Z,95328.80
2018-04-16T03:53:42.385Z,95324.58
2018-04-16T03:56:10.686Z,95324.61
2018-04-16T03:58:39.074Z,95327.98
2018-04-16T04:01:07.383Z,95324.54
2018-04-16T04:03:35.723Z,95326.97
2018-04-16T04:06:04.036Z,95338.22
2018-04-16T04:08:32.486Z,95345.09
2018-04-16T04:11:00.860Z,95350.72
2018-04-16T04:13:29.180Z,95354.16
2018-04-16T04:15:57.500Z,95358.84
2018-04-16T04:18:25.805Z,95362.22
2018-04-16T04:20:54.178Z,95359.84
2018-04-16T04:23:34.333Z,95373.67
2018-04-16T04:26:14.616Z,95366.66
2018-04-16T04:28:54.980Z,95375.61
2018-04-16T04:31:23.348Z,95382.30
2018-04-16T04:33:51.660Z,95388.17
2018-04-16T04:36:19.983Z,95399.16
2018-04-16T04:38:48.296Z,95401.57
2018-04-16T04:41:16.644Z,95403.58
2018-04-16T04:43:45.048Z,95403.02
2018-04-16T04:46:13.378Z,95404.20
2018-04-16T04:48:41.775Z,95401.12
2018-04-16T04:51:10.090Z,95404.16
2018-04-16T04:53:38.443Z,95401.47
2018-04-16T04:56:06.778Z,95396.52
2018-04-16T04:58:35.089Z,95398.97
2018-04-16T05:01:03.446Z,95403.17
2018-04-16T05:03:31.810Z,95402.14
2018-04-16T05:06:00.115Z,95405.34
2018-04-16T05:08:28.432Z,95406.36
2018-04-16T05:10:56.781Z,95416.96
2018-04-16T05:13:25.159Z,95415.42
2018-04-16T05:15:53.522Z,95425.65
2018-04-16T05:18:21.910Z,95420.19
2018-04-16T05:20:50.218Z,95436.06
2018-04-16T05:23:18.556Z,95438.61
2018-04-16T05:25:46.932Z,95444.53
2018-04-16T05:28:15.312Z,95445.09
2018-04-16T05:30:43.637Z,95448.86
2018-04-16T05:33:11.968Z,95459.58
2018-04-16T05:35:40.345Z,95451.16
2018-04-16T05:38:08.679Z,95453.79
2018-04-16T05:40:37.021Z,95451.16
2018-04-16T05:43:05.368Z,95453.98
2018-04-16T05:45:33.677Z,95462.52
2018-04-16T05:48:02.071Z,95461.83
2018-04-16T05:50:30.520Z,95462.02
2018-04-16T05:52:58.848Z,95460.78
2018-04-16T05:55:27.160Z,95460.89
2018-04-16T05:57:55.496Z,95462.75
2018-04-16T06:00:23.818Z,95472.27
2018-04-16T06:02:52.196Z,95476.39
2018-04-16T06:05:20.511Z,95482.71
2018-04-16T06:07:48.845Z,95481.58
2018-04-16T06:10:17.156Z,95489.06
2018-04-16T06:12:45.469Z,95489.37
2018-04-16T06:15:13.795Z,95484.59
2018-04-16T06:17:42.105Z,95487.96
2018-04-16T06:20:10.437Z,95483.53
2018-04-16T06:22:38.744Z,95497.41
2018-04-16T06:25:07.089Z,95500.03
2018-04-16T06:27:35.407Z,95502.27
2018-04-16T06:30:03.785Z,95499.49
2018-04-16T06:32:32.119Z,95494.36
2018-04-16T06:35:00.500Z,95496.78
2018-04-16T06:37:28.806Z,95498.52
2018-04-16T06:39:57.150Z,95495.91
2018-04-16T06:42:25.520Z,95504.23
2018-04-16T06:44:53.930Z,95517.09
2018-04-16T06:47:22.287Z,95513.47
2018-04-16T06:49:50.629Z,95512.88
2018-04-16T06:52:19.049Z,95507.30
2018-04-16T06:54:47.757Z,95512.94
2018-04-16T06:57:16.107Z,95511.52
2018-04-16T06:59:44.528Z,95511.54
2018-04-16T07:02:12.869Z,95513.67
2018-04-16T07:04:41.189Z,95517.48
2018-04-16T07:07:09.535Z,95526.77
2018-04-16T07:09:37.871Z,95529.97
2018-04-16T07:12:06.212Z,95529.82
2018-04-16T07:14:34.538Z,95532.45
2018-04-16T07:17:02.876Z,95532.21
2018-04-16T07:19:31.195Z,95531.29
2018-04-16T07:21:59.533Z,95538.52
2018-04-16T07:24:27.858Z,95541.77
2018-04-16T07:26:56.204Z,95547.48
2018-04-16T07:29:24.612Z,95548.02
2018-04-16T07:31:53.036Z,95559.79
2018-04-16T07:34:21.375Z,95562.45
2018-04-16T07:36:49.723Z,95564.48
2018-04-16T07:39:18.041Z,95562.67
2018-04-16T07:41:46.438Z,95560.47
2018-04-16T07:44:14.758Z,95565.36
2018-04-16T07:46:43.376Z,95563.38
2018-04-16T07:49:11.700Z,95565.05
2018-04-16T07:51:40.012Z,95566.18
2018-04-16T07:54:08.368Z,95565.98
2018-04-16T07:56:36.700Z,95573.02
2018-04-16T07:59:05.094Z,95575.11
2018-04-16T08:01:33.451Z,95575.48
2018-04-16T08:04:01.789Z,95578.58
2018-04-16T08:06:30.109Z,95580.66
2018-04-16T08:08:58.453Z,95580.97
2018-04-16T08:11:26.775Z,95585.69
2018-04-16T08:13:55.133Z,95598.30
2018-04-16T08:16:23.456Z,95596.45
2018-04-16T08:18:51.788Z,95593.56
2018-04-16T08:21:20.110Z,95587.83
2018-04-16T08:23:48.445Z,95594.92
2018-04-16T08:26:16.819Z,95604.34
2018-04-16T08:28:45.149Z,95596.89
2018-04-16T08:31:13.465Z,95601.95
2018-04-16T08:33:41.803Z,95607.06
2018-04-16T08:36:10.124Z,95612.84
2018-04-16T08:38:38.480Z,95612.16
2018-04-16T08:41:06.800Z,95609.26
2018-04-16T08:43:35.144Z,95606.71
2018-04-16T08:46:03.533Z,95604.35
2018-04-16T08:48:31.888Z,95605.03
2018-04-16T08:51:00.202Z,95603.06
2018-04-16T08:53:28.520Z,95594.59
2018-04-16T08:55:56.860Z,95597.92
2018-04-16T08:58:25.221Z,95603.99
2018-04-16T09:00:53.549Z,95610.89
2018-04-16T09:03:21.870Z,95604.23
2018-04-16T09:05:50.209Z,95609.99
2018-04-16T09:08:18.521Z,95614.45
2018-04-16T09:10:46.861Z,95619.06
2018-04-16T09:13:15.164Z,95637.55
2018-04-16T09:15:43.557Z,95630.38
2018-04-16T09:18:11.881Z,95632.34
2018-04-16T09:20:40.201Z,95642.97
2018-04-16T09:23:08.581Z,95638.45
2018-04-16T09:25:36.975Z,95656.37
2018-04-16T09:28:05.336Z,95649.86
2018-04-16T09:30:33.717Z,95654.58
2018-04-16T09:33:02.048Z,95651.80
2018-04-16T09:35:30.472Z,95648.59
2018-04-16T09:37:58.815Z,95653.95
2018-04-16T09:40:27.130Z,95649.64
2018-04-16T09:42:55.521Z,95656.39
2018-04-16T09:45:23.888Z,95658.64
2018-04-16T09:47:52.261Z,95655.87
2018-04-16T09:50:20.706Z,95660.68
2018-04-16T09:52:49.016Z,95659.05
2018-04-16T09:55:17.367Z,95662.49
2018-04-16T09:57:45.670Z,95659.51
2018-04-16T10:00:14.049Z,95658.78
2018-04-16T10:02:47.965Z,95661.22
2018-04-16T10:05:16.341Z,95657.14
2018-04-16T10:07:44.657Z,95657.10
2018-04-16T10:10:13.000Z,95659.11
2018-04-16T10:12:41.379Z,95663.38
2018-04-16T10:15:09.796Z,95664.72
2018-04-16T10:17:38.470Z,95665.83
2018-04-16T10:20:06.828Z,95661.00
2018-04-16T10:22:35.160Z,95664.39
2018-04-16T10:25:03.620Z,95665.20
2018-04-16T10:27:31.946Z,95668.10
2018-04-16T10:30:00.355Z,95664.28
2018-04-16T10:32:28.748Z,95666.41
2018-04-16T10:34:57.022Z,95672.63
2018-04-16T10:37:25.358Z,95673.66
2018-04-16T10:39:53.685Z,95665.00
2018-04-16T10:42:22.013Z,95681.30
2018-04-16T10:44:50.324Z,95675.75
2018-04-16T10:47:18.665Z,95670.06
2018-04-16T10:49:47.125Z,95676.97
2018-04-16T10:52:15.444Z,95682.55
2018-04-16T10:54:43.800Z,95683.41
2018-04-16T10:57:12.132Z,95676.36
2018-04-16T10:59:40.576Z,95675.48
2018-04-16T11:02:08.910Z,95675.09
2018-04-16T11:04:37.224Z,95676.86
2018-04-16T11:07:05.905Z,95674.97
2018-04-16T11:09:34.285Z,95677.13
2018-04-16T11:12:02.614Z,95677.17
2018-04-16T11:14:31.045Z,95675.09
2018-04-16T11:16:59.357Z,95677.76
2018-04-16T11:19:27.749Z,95675.96
2018-04-16T11:21:56.070Z,95678.20
2018-04-16T11:24:24.453Z,95686.05
2018-04-16T11:26:52.828Z,95689.86
2018-04-16T11:29:21.166Z,95694.05
2018-04-16T11:31:49.580Z,95702.67
2018-04-16T11:34:17.976Z,95701.09
2018-04-16T11:36:46.294Z,95697.75
2018-04-16T11:39:14.629Z,95700.91
2018-04-16T11:41:42.954Z,95698.77
2018-04-16T11:44:11.290Z,95707.08
2018-04-16T11:46:39.645Z,95707.59
2018-04-16T11:49:07.993Z,95705.91
2018-04-16T11:51:36.301Z,95714.64
2018-04-16T11:54:04.645Z,95708.91
2018-04-16T11:56:32.961Z,95709.02
2018-04-16T11:59:01.299Z,95707.97
2018-04-16T12:01:29.724Z,95711.34
2018-04-16T12:03:58.060Z,95716.00
2018-04-16T12:06:26.420Z,95716.12
2018-04-16T12:08:54.820Z,95713.91
2018-04-16T12:11:23.129Z,95718.03
2018-04-16T12:13:51.484Z,95721.80
2018-04-16T12:16:19.825Z,95719.14
2018-04-16T12:18:48.132Z,95712.77
2018-04-16T12:21:16.556Z,95714.78
2018-04-16T12:23:44.923Z,95713.15
2018-04-16T12:26:13.294Z,95720.88
2018-04-16T12:28:41.601Z,95724.66
2018-04-16T12:31:09.953Z,95730.69
2018-04-16T12:33:38.266Z,95730.09
2018-04-16T12:36:06.689Z,95734.83
2018-04-16T12:38:35.086Z,95734.16
2018-04-16T12:41:03.430Z,95734.54
2018-04-16T12:43:31.765Z,95734.24
2018-04-16T12:46:00.105Z,95726.51
2018-04-16T12:48:28.539Z,95738.32
2018-04-16T12:50:56.917Z,95733.02
2018-04-16T12:53:25.209Z,95734.23
2018-04-16T12:55:53.542Z,95741.39
2018-04-16T12:58:21.890Z,95735.62
2018-04-16T13:00:50.262Z,95740.41
2018-04-16T13:03:18.672Z,95739.23
2018-04-16T13:05:47.032Z,95749.11
2018-04-16T13:08:15.362Z,95745.21
2018-04-16T13:10:43.683Z,95749.18
2018-04-16T13:13:12.026Z,95752.74
2018-04-16T13:15:40.333Z,95748.30
2018-04-16T13:18:08.730Z,95751.39
2018-04-16T13:20:37.056Z,95754.16
2018-04-16T13:23:05.493Z,95755.64
2018-04-16T13:25:33.813Z,95754.72
2018-04-16T13:28:02.145Z,95749.40
2018-04-16T13:30:30.460Z,95753.02
2018-04-16T13:32:58.893Z,95756.04
2018-04-16T13:35:27.268Z,95754.41
2018-04-16T13:37:55.780Z,95761.41
2018-04-16T13:40:24.108Z,95763.65
2018-04-16T13:42:52.450Z,95767.12
2018-04-16T13:45:20.786Z,95759.26
2018-04-16T13:47:49.166Z,95767.95
2018-04-16T13:50:17.562Z,95762.64
2018-04-16T13:52:45.885Z,95761.78
2018-04-16T13:55:14.189Z,95759.54
2018-04-16T13:57:42.569Z,95757.20
2018-04-16T14:00:10.885Z,95763.08
2018-04-16T14:02:39.229Z,95761.72
2018-04-16T14:05:07.574Z,95767.66
2018-04-16T14:07:35.885Z,95763.11
2018-04-16T14:10:05.188Z,95760.24
2018-04-16T14:12:33.617Z,95761.52
2018-04-16T14:15:01.945Z,95766.02
2018-04-16T14:17:30.364Z,95770.77
2018-04-16T14:19:58.744Z,95768.53
2018-04-16T14:22:27.080Z,95776.94
2018-04-16T14:24:55.426Z,95768.66
2018-04-16T14:27:23.833Z,95766.56
2018-04-16T14:29:52.170Z,95775.36
2018-04-16T14:32:20.494Z,95773.13
2018-04-16T14:34:48.841Z,95775.46
2018-04-16T14:37:17.165Z,95773.70
2018-04-16T14:39:45.508Z,95776.67
2018-04-16T14:42:13.822Z,95772.58
2018-04-16T14:44:42.276Z,95773.69
2018-04-16T14:47:10.669Z,95776.05
2018-04-16T14:49:38.984Z,95782.75
2018-04-16T14:52:07.312Z,95781.56
2018-04-16T14:54:35.696Z,95784.70
2018-04-16T14:57:04.068Z,95779.53
2018-04-16T14:59:32.442Z,95783.67
2018-04-16T15:02:00.777Z,95779.43
2018-04-16T15:04:29.101Z,95773.86
2018-04-16T15:06:57.425Z,95773.05
2018-04-16T15:09:25.741Z,95781.14
2018-04-16T15:11:54.077Z,95781.58
2018-04-16T15:14:22.425Z,95783.77
2018-04-16T15:16:50.788Z,95787.78
2018-04-16T15:19:19.105Z,95788.21
2018-04-16T15:21:47.452Z,95788.59
2018-04-16T15:24:15.766Z,95788.14
2018-04-16T15:26:44.172Z,95795.86
2018-04-16T15:29:12.510Z,95799.75
2018-04-16T15:31:40.840Z,95802.75
2018-04-16T15:34:10.160Z,95803.98
2018-04-16T15:36:38.514Z,95794.22
2018-04-16T15:39:06.849Z,95799.97
2018-04-16T15:41:35.187Z,95802.67
2018-04-16T15:44:03.573Z,95804.38
2018-04-16T15:46:31.909Z,95810.25
2018-04-16T15:49:00.245Z,95810.37
2018-04-16T15:51:28.561Z,95803.09
2018-04-16T15:53:56.910Z,95798.69
2018-04-16T15:56:25.218Z,95806.95
2018-04-16T15:58:53.554Z,95809.08
2018-04-16T16:01:21.881Z,95810.90
2018-04-16T16:03:50.219Z,95814.00
2018-04-16T16:06:19.649Z,95816.24
2018-04-16T16:08:49.945Z,95813.60
2018-04-16T16:11:18.335Z,95817.69
2018-04-16T16:13:46.637Z,95823.56
2018-04-16T16:16:15.049Z,95821.31
2018-04-16T16:18:43.400Z,95827.87
2018-04-16T16:21:11.841Z,95834.53
2018-04-16T16:23:40.180Z,95835.36
2018-04-16T16:26:08.574Z,95844.02
2018-04-16T16:28:37.000Z,95845.69
2018-04-16T16:31:05.310Z,95847.75
2018-04-16T16:33:33.674Z,95854.89
2018-04-16T16:36:02.809Z,95856.91
2018-04-16T16:38:33.521Z,95854.36
2018-04-16T16:41:02.710Z,95861.75
2018-04-16T16:43:31.038Z,95856.84
2018-04-16T16:45:59.370Z,95859.53
2018-04-16T16:48:27.674Z,95851.09
2018-04-16T16:50:56.016Z,95859.50
2018-04-16T16:53:24.325Z,95857.57
2018-04-16T16:55:52.653Z,95858.91
2018-04-16T16:58:20.981Z,95866.92
2018-04-16T17:00:49.338Z,95869.20
2018-04-16T17:03:17.650Z,95876.16
2018-04-16T17:05:45.983Z,95874.75
2018-04-16T17:08:14.303Z,95881.81
2018-04-16T17:10:42.684Z,95874.33
2018-04-16T17:13:10.984Z,95880.59
2018-04-16T17:15:40.669Z,95884.92
2018-04-16T17:18:08.965Z,95889.30
2018-04-16T17:20:37.307Z,95893.08
2018-04-16T17:23:05.610Z,95893.08
2018-04-16T17:25:33.955Z,95901.52
2018-04-16T17:28:02.261Z,95902.40
2018-04-16T17:30:30.608Z,95910.34
2018-04-16T17:32:58.968Z,95911.27
2018-04-16T17:35:27.317Z,95910.15
2018-04-16T17:37:55.747Z,95914.36
2018-04-16T17:40:24.148Z,95916.08
2018-04-16T17:42:52.526Z,95912.28
2018-04-16T17:45:20.822Z,95915.80
2018-04-16T17:47:49.175Z,95918.08
2018-04-16T17:50:17.494Z,95928.64
2018-04-16T17:52:45.902Z,95932.47
2018-04-16T17:55:14.276Z,95930.84
2018-04-16T17:57:42.634Z,95932.42
2018-04-16T18:00:10.930Z,95938.08
2018-04-16T18:02:39.305Z,95936.99
2018-04-16T18:05:07.685Z,95941.61
2018-04-16T18:07:36.005Z,95944.95
2018-04-16T18:10:04.337Z,95945.34
2018-04-16T18:12:32.665Z,95956.34
2018-04-16T18:15:00.972Z,95947.23
2018-04-16T18:17:29.368Z,95956.23
2018-04-16T18:19:57.686Z,95956.36
2018-04-16T18:22:26.026Z,95959.59
2018-04-16T18:24:54.373Z,95970.98
2018-04-16T18:27:22.722Z,95969.91
2018-04-16T18:29:51.056Z,95975.44
2018-04-16T18:32:19.381Z,95972.22
2018-04-16T18:34:47.812Z,95982.33
2018-04-16T18:37:16.137Z,95990.63
2018-04-16T18:39:44.461Z,95992.62
2018-04-16T18:42:12.861Z,95997.05
2018-04-16T18:44:41.185Z,95996.69
2018-04-16T18:47:09.606Z,96008.77
2018-04-16T18:49:37.982Z,96011.91
2018-04-16T18:52:06.404Z,96011.80
2018-04-16T18:54:34.744Z,96014.16
2018-04-16T18:57:03.062Z,96024.39
2018-04-16T18:59:31.398Z,96024.20
2018-04-16T19:01:59.716Z,96030.03
2018-04-16T19:04:28.075Z,96030.06
2018-04-16T19:06:56.390Z,96034.16
2018-04-16T19:09:24.717Z,96039.58
2018-04-16T19:11:53.088Z,96039.38
2018-04-16T19:14:21.432Z,96050.49
2018-04-16T19:16:50.945Z,96052.08
2018-04-16T19:19:19.253Z,96058.86
2018-04-16T19:21:53.107Z,96062.77
2018-04-16T19:24:21.530Z,96062.66
2018-04-16T19:26:55.404Z,96067.19
2018-04-16T19:29:23.762Z,96071.03
2018-04-16T19:31:52.096Z,96069.70
2018-04-16T19:34:26.139Z,96064.80
2018-04-16T19:36:54.463Z,96069.68
2018-04-16T19:39:22.780Z,96074.50
2018-04-16T19:41:56.740Z,96075.48
2018-04-16T19:44:25.008Z,96072.23
2018-04-16T19:46:53.416Z,96072.25
2018-04-16T19:49:28.709Z,96079.69
2018-04-16T19:51:57.047Z,96079.17
2018-04-16T19:54:25.364Z,96082.95
2018-04-16T19:56:59.471Z,96084.73
2018-04-16T19:59:27.800Z,96086.69
2018-04-16T20:02:01.592Z,96084.25
2018-04-16T20:04:29.914Z,96088.73
2018-04-16T20:06:58.263Z,96091.75
2018-04-16T20:09:26.649Z,96092.94
2018-04-16T20:11:54.988Z,96091.17
2018-04-16T20:14:23.298Z,96097.17
2018-04-16T20:16:51.682Z,96096.33
2018-04-16T20:19:20.001Z,96098.30
2018-04-16T20:21:48.322Z,96099.14
2018-04-16T20:24:16.697Z,96104.23
2018-04-16T20:26:45.081Z,96101.63
2018-04-16T20:29:13.510Z,96107.13
2018-04-16T20:31:41.836Z,96110.08
2018-04-16T20:34:10.156Z,96111.38
2018-04-16T20:36:38.589Z,96109.61
2018-04-16T20:39:06.976Z,96109.58
2018-04-16T20:41:35.290Z,96112.88
2018-04-16T20:44:03.655Z,96115.13
2018-04-16T20:46:32.029Z,96121.00
2018-04-16T20:49:00.389Z,96123.11
2018-04-16T20:51:28.698Z,96121.69
2018-04-16T20:53:57.046Z,96119.53
2018-04-16T20:56:25.365Z,96114.53
2018-04-16T20:58:53.698Z,96118.09
2018-04-16T21:01:22.074Z,96120.94
2018-04-16T21:03:50.417Z,96122.10
2018-04-16T21:06:18.752Z,96132.25
2018-04-16T21:08:47.085Z,96132.33
2018-04-16T21:11:15.385Z,96136.41
2018-04-16T21:13:43.713Z,96142.77
2018-04-16T21:16:12.015Z,96136.08
2018-04-16T21:18:40.352Z,96138.21
2018-04-16T21:21:08.798Z,96140.48
2018-04-16T21:23:37.176Z,96140.03
2018-04-16T21:26:05.480Z,96139.43
2018-04-16T21:28:33.842Z,96145.20
2018-04-16T21:31:02.208Z,96136.77
2018-04-16T21:33:30.521Z,96145.42
2018-04-16T21:35:58.957Z,96147.28
2018-04-16T21:38:27.264Z,96150.22
2018-04-16T21:40:55.594Z,96156.06
2018-04-16T21:43:23.997Z,96160.20
2018-04-16T21:45:52.336Z,96162.86
2018-04-16T21:48:20.644Z,96164.41
2018-04-16T21:50:48.977Z,96163.38
2018-04-16T21:53:17.290Z,96161.34
2018-04-16T21:55:45.624Z,96164.71
2018-04-16T21:58:13.940Z,96171.03
2018-04-16T22:00:42.327Z,96171.18
2018-04-16T22:03:10.672Z,96174.39
2018-04-16T22:05:38.977Z,96175.33
2018-04-16T22:08:07.289Z,96177.84
2018-04-16T22:10:35.689Z,96183.11
2018-04-16T22:13:04.013Z,96180.56
2018-04-16T22:15:32.361Z,96181.42
2018-04-16T22:18:00.673Z,96188.72
2018-04-16T22:20:29.052Z,96187.06
2018-04-16T22:22:57.392Z,96192.19
2018-04-16T22:25:25.811Z,96193.98
2018-04-16T22:27:54.144Z,96199.59
2018-04-16T22:30:22.458Z,96192.59
2018-04-16T22:32:50.838Z,96207.19
2018-04-16T22:35:19.151Z,96212.64
2018-04-16T22:37:47.490Z,96214.10
2018-04-16T22:40:15.812Z,96210.11
2018-04-16T22:42:44.146Z,96214.45
2018-04-16T22:45:12.533Z,96216.84
2018-04-16T22:47:40.864Z,96214.16
2018-04-16T22:50:09.180Z,96224.30
2018-04-16T22:52:37.559Z,96226.73
2018-04-16T22:55:05.905Z,96236.88
2018-04-16T22:57:34.318Z,96236.13
2018-04-16T23:00:02.617Z,96237.59
2018-04-16T23:02:30.932Z,96242.03
2018-04-16T23:04:59.345Z,96243.33
2018-04-16T23:07:27.653Z,96246.84
2018-04-16T23:09:55.982Z,96246.92
2018-04-16T23:12:24.293Z,96251.06
2018-04-16T23:14:52.644Z,96252.48
2018-04-16T23:17:21.055Z,96254.02
2018-04-16T23:19:49.400Z,96249.06
2018-04-16T23:22:17.712Z,96254.38
2018-04-16T23:24:46.041Z,96252.66
2018-04-16T23:27:14.500Z,96258.86
2018-04-16T23:29:42.830Z,96263.10
2018-04-16T23:32:11.220Z,96265.63
2018-04-16T23:34:39.585Z,96266.75
2018-04-16T23:37:07.908Z,96269.27
2018-04-16T23:39:36.248Z,96267.55
2018-04-16T23:42:04.632Z,96275.95
2018-04-16T23:44:32.953Z,96272.99
2018-04-16T23:47:01.377Z,96271.33
2018-04-16T23:49:29.717Z,96272.52
2018-04-16T23:51:58.029Z,96274.98
2018-04-16T23:54:26.365Z,96271.77
2018-04-16T23:56:54.666Z,96270.63
2018-04-16T23:59:23.016Z,96272.16
